sensor_id;sensor_type;location;lat;lon;timestamp;pressure;altitude;pressure_sealevel;temperature;humidity
63554;BME280;49699;48.072;7.800;2023-05-12T00:01:11;99156.97;;;11.14;86.37
63554;BME280;49699;48.072;7.800;2023-05-12T00:03:39;99155.00;;;11.18;86.59
63554;BME280;49699;48.072;7.800;2023-05-12T00:06:05;99146.25;;;11.19;86.06
63554;BME280;49699;48.072;7.800;2023-05-12T00:08:30;99148.66;;;11.22;86.50
63554;BME280;49699;48.072;7.800;2023-05-12T00:10:56;99148.56;;;11.23;85.87
63554;BME280;49699;48.072;7.800;2023-05-12T00:13:21;99152.00;;;11.24;86.06
63554;BME280;49699;48.072;7.800;2023-05-12T00:15:48;99150.16;;;11.26;86.27
63554;BME280;49699;48.072;7.800;2023-05-12T00:18:13;99151.00;;;11.26;86.28
63554;BME280;49699;48.072;7.800;2023-05-12T00:20:39;99145.69;;;11.28;86.22
63554;BME280;49699;48.072;7.800;2023-05-12T00:23:04;99146.63;;;11.27;85.94
63554;BME280;49699;48.072;7.800;2023-05-12T00:25:29;99140.47;;;11.28;86.35
63554;BME280;49699;48.072;7.800;2023-05-12T00:27:54;99142.25;;;11.27;86.09
63554;BME280;49699;48.072;7.800;2023-05-12T00:30:20;99139.50;;;11.29;86.34
63554;BME280;49699;48.072;7.800;2023-05-12T00:32:45;99135.97;;;11.30;86.27
63554;BME280;49699;48.072;7.800;2023-05-12T00:35:10;99135.88;;;11.31;86.15
63554;BME280;49699;48.072;7.800;2023-05-12T00:37:36;99136.81;;;11.30;86.10
63554;BME280;49699;48.072;7.800;2023-05-12T00:40:02;99138.56;;;11.30;86.26
63554;BME280;49699;48.072;7.800;2023-05-12T00:42:27;99135.03;;;11.31;86.48
63554;BME280;49699;48.072;7.800;2023-05-12T00:44:52;99134.41;;;11.27;86.60
63554;BME280;49699;48.072;7.800;2023-05-12T00:47:18;99133.59;;;11.27;86.61
63554;BME280;49699;48.072;7.800;2023-05-12T00:49:44;99134.53;;;11.26;86.71
63554;BME280;49699;48.072;7.800;2023-05-12T00:52:10;99128.47;;;11.25;86.89
63554;BME280;49699;48.072;7.800;2023-05-12T00:54:36;99132.84;;;11.25;86.82
63554;BME280;49699;48.072;7.800;2023-05-12T00:57:02;99135.34;;;11.26;87.04
63554;BME280;49699;48.072;7.800;2023-05-12T00:59:29;99137.97;;;11.26;86.60
63554;BME280;49699;48.072;7.800;2023-05-12T01:01:54;99129.31;;;11.26;86.80
63554;BME280;49699;48.072;7.800;2023-05-12T01:04:20;99129.09;;;11.29;86.64
63554;BME280;49699;48.072;7.800;2023-05-12T01:06:57;99129.91;;;11.29;86.86
63554;BME280;49699;48.072;7.800;2023-05-12T01:09:23;99129.09;;;11.29;86.65
63554;BME280;49699;48.072;7.800;2023-05-12T01:11:49;99120.34;;;11.30;86.94
63554;BME280;49699;48.072;7.800;2023-05-12T01:14:16;99126.72;;;11.26;86.91
63554;BME280;49699;48.072;7.800;2023-05-12T01:16:50;99129.31;;;11.26;87.04
63554;BME280;49699;48.072;7.800;2023-05-12T01:22:00;99128.38;;;11.27;86.99
63554;BME280;49699;48.072;7.800;2023-05-12T01:24:26;99119.72;;;11.26;87.12
63554;BME280;49699;48.072;7.800;2023-05-12T01:26:53;99126.38;;;11.30;87.03
63554;BME280;49699;48.072;7.800;2023-05-12T01:29:18;99124.50;;;11.32;86.95
63554;BME280;49699;48.072;7.800;2023-05-12T01:31:44;99122.66;;;11.34;86.72
63554;BME280;49699;48.072;7.800;2023-05-12T01:34:14;99125.16;;;11.36;86.63
63554;BME280;49699;48.072;7.800;2023-05-12T01:36:46;99121.72;;;11.35;86.89
63554;BME280;49699;48.072;7.800;2023-05-12T01:39:11;99117.53;;;11.33;86.74
63554;BME280;49699;48.072;7.800;2023-05-12T01:41:37;99126.28;;;11.32;86.87
63554;BME280;49699;48.072;7.800;2023-05-12T01:44:03;99126.19;;;11.33;86.98
63554;BME280;49699;48.072;7.800;2023-05-12T01:46:28;99125.25;;;11.34;86.69
63554;BME280;49699;48.072;7.800;2023-05-12T01:48:56;99121.81;;;11.34;86.92
63554;BME280;49699;48.072;7.800;2023-05-12T01:51:22;99119.09;;;11.35;86.91
63554;BME280;49699;48.072;7.800;2023-05-12T01:53:47;99120.03;;;11.34;87.07
63554;BME280;49699;48.072;7.800;2023-05-12T01:56:13;99120.03;;;11.34;87.26
63554;BME280;49699;48.072;7.800;2023-05-12T01:58:38;99121.81;;;11.34;87.18
63554;BME280;49699;48.072;7.800;2023-05-12T02:01:03;99114.84;;;11.34;87.12
63554;BME280;49699;48.072;7.800;2023-05-12T02:03:28;99118.06;;;11.38;87.09
63554;BME280;49699;48.072;7.800;2023-05-12T02:05:55;99120.59;;;11.39;87.07
63554;BME280;49699;48.072;7.800;2023-05-12T02:08:21;99117.03;;;11.40;87.11
63554;BME280;49699;48.072;7.800;2023-05-12T02:10:46;99120.47;;;11.41;87.20
63554;BME280;49699;48.072;7.800;2023-05-12T02:13:11;99129.13;;;11.41;87.17
63554;BME280;49699;48.072;7.800;2023-05-12T02:15:37;99122.16;;;11.42;87.02
63554;BME280;49699;48.072;7.800;2023-05-12T02:18:02;99123.00;;;11.42;87.26
63554;BME280;49699;48.072;7.800;2023-05-12T02:20:28;99123.81;;;11.43;87.16
63554;BME280;49699;48.072;7.800;2023-05-12T02:22:54;99110.69;;;11.44;86.93
63554;BME280;49699;48.072;7.800;2023-05-12T02:25:19;99111.53;;;11.45;86.91
63554;BME280;49699;48.072;7.800;2023-05-12T02:27:45;99110.69;;;11.44;87.04
63554;BME280;49699;48.072;7.800;2023-05-12T02:30:11;99113.31;;;11.44;87.05
63554;BME280;49699;48.072;7.800;2023-05-12T02:32:36;99120.19;;;11.45;87.39
63554;BME280;49699;48.072;7.800;2023-05-12T02:35:03;99114.00;;;11.46;87.33
63554;BME280;49699;48.072;7.800;2023-05-12T02:37:29;99115.81;;;11.46;87.20
63554;BME280;49699;48.072;7.800;2023-05-12T02:39:54;99116.75;;;11.45;87.08
63554;BME280;49699;48.072;7.800;2023-05-12T02:42:19;99119.56;;;11.42;87.29
63554;BME280;49699;48.072;7.800;2023-05-12T02:44:45;99116.31;;;11.38;87.62
63554;BME280;49699;48.072;7.800;2023-05-12T02:47:10;99122.56;;;11.36;87.49
63554;BME280;49699;48.072;7.800;2023-05-12T02:49:36;99114.72;;;11.36;87.87
63554;BME280;49699;48.072;7.800;2023-05-12T02:52:01;99119.09;;;11.35;87.81
63554;BME280;49699;48.072;7.800;2023-05-12T02:54:26;99120.78;;;11.36;87.85
63554;BME280;49699;48.072;7.800;2023-05-12T02:56:52;99117.34;;;11.36;87.73
63554;BME280;49699;48.072;7.800;2023-05-12T02:59:17;99116.50;;;11.35;87.78
63554;BME280;49699;48.072;7.800;2023-05-12T03:01:42;99122.44;;;11.37;87.72
63554;BME280;49699;48.072;7.800;2023-05-12T03:04:08;99122.34;;;11.39;87.77
63554;BME280;49699;48.072;7.800;2023-05-12T03:06:33;99117.03;;;11.40;87.71
63554;BME280;49699;48.072;7.800;2023-05-12T03:08:58;99117.78;;;11.42;87.67
63554;BME280;49699;48.072;7.800;2023-05-12T03:11:24;99113.31;;;11.44;87.26
63554;BME280;49699;48.072;7.800;2023-05-12T03:13:50;99113.22;;;11.46;87.67
63554;BME280;49699;48.072;7.800;2023-05-12T03:16:15;99108.69;;;11.48;87.51
63554;BME280;49699;48.072;7.800;2023-05-12T03:18:42;99118.19;;;11.49;87.50
63554;BME280;49699;48.072;7.800;2023-05-12T03:21:07;99117.25;;;11.50;87.15
63554;BME280;49699;48.072;7.800;2023-05-12T03:23:33;99113.81;;;11.49;87.18
63554;BME280;49699;48.072;7.800;2023-05-12T03:25:59;99119.03;;;11.49;87.04
63554;BME280;49699;48.072;7.800;2023-05-12T03:28:25;99120.59;;;11.52;87.01
63554;BME280;49699;48.072;7.800;2023-05-12T03:30:50;99120.59;;;11.52;86.86
63554;BME280;49699;48.072;7.800;2023-05-12T03:33:16;99113.63;;;11.53;86.97
63554;BME280;49699;48.072;7.800;2023-05-12T03:35:41;99113.50;;;11.54;86.88
63554;BME280;49699;48.072;7.800;2023-05-12T03:38:07;99115.28;;;11.54;86.89
63554;BME280;49699;48.072;7.800;2023-05-12T03:40:32;99107.56;;;11.52;86.94
63554;BME280;49699;48.072;7.800;2023-05-12T03:42:58;99111.94;;;11.52;87.22
63554;BME280;49699;48.072;7.800;2023-05-12T03:45:23;99110.47;;;11.47;87.05
63554;BME280;49699;48.072;7.800;2023-05-12T03:47:48;99115.81;;;11.46;87.28
63554;BME280;49699;48.072;7.800;2023-05-12T03:50:13;99111.84;;;11.40;87.52
63554;BME280;49699;48.072;7.800;2023-05-12T03:52:39;99110.25;;;11.38;87.69
63554;BME280;49699;48.072;7.800;2023-05-12T03:55:05;99106.09;;;11.35;87.91
63554;BME280;49699;48.072;7.800;2023-05-12T03:57:31;99109.53;;;11.36;87.99
63554;BME280;49699;48.072;7.800;2023-05-12T03:59:56;99104.41;;;11.34;88.00
63554;BME280;49699;48.072;7.800;2023-05-12T04:02:22;99104.50;;;11.33;88.42
63554;BME280;49699;48.072;7.800;2023-05-12T04:04:47;99104.50;;;11.33;88.42
63554;BME280;49699;48.072;7.800;2023-05-12T04:07:13;99092.31;;;11.33;88.31
63554;BME280;49699;48.072;7.800;2023-05-12T04:09:39;99097.34;;;11.36;88.33
63554;BME280;49699;48.072;7.800;2023-05-12T04:12:04;99098.25;;;11.35;88.18
63554;BME280;49699;48.072;7.800;2023-05-12T04:14:30;99093.88;;;11.36;88.38
63554;BME280;49699;48.072;7.800;2023-05-12T04:16:55;99103.56;;;11.34;88.31
63554;BME280;49699;48.072;7.800;2023-05-12T04:19:23;99105.34;;;11.33;88.33
63554;BME280;49699;48.072;7.800;2023-05-12T04:21:48;99101.06;;;11.32;88.53
63554;BME280;49699;48.072;7.800;2023-05-12T04:24:14;99102.94;;;11.30;88.29
63554;BME280;49699;48.072;7.800;2023-05-12T04:26:39;99106.47;;;11.29;88.72
63554;BME280;49699;48.072;7.800;2023-05-12T04:29:06;99107.31;;;11.30;88.64
63554;BME280;49699;48.072;7.800;2023-05-12T04:31:31;99108.97;;;11.31;88.87
63554;BME280;49699;48.072;7.800;2023-05-12T04:33:56;99111.50;;;11.32;88.79
63554;BME280;49699;48.072;7.800;2023-05-12T04:36:23;99111.38;;;11.34;88.46
63554;BME280;49699;48.072;7.800;2023-05-12T04:38:48;99107.13;;;11.33;88.50
63554;BME280;49699;48.072;7.800;2023-05-12T04:41:14;99103.56;;;11.34;88.70
63554;BME280;49699;48.072;7.800;2023-05-12T04:43:39;99111.28;;;11.35;88.51
63554;BME280;49699;48.072;7.800;2023-05-12T04:46:05;99112.97;;;11.36;88.44
63554;BME280;49699;48.072;7.800;2023-05-12T04:48:30;99113.78;;;11.37;88.29
63554;BME280;49699;48.072;7.800;2023-05-12T04:50:58;99120.69;;;11.38;88.40
63554;BME280;49699;48.072;7.800;2023-05-12T04:53:24;99116.22;;;11.40;88.07
63554;BME280;49699;48.072;7.800;2023-05-12T04:55:50;99123.94;;;11.41;88.20
63554;BME280;49699;48.072;7.800;2023-05-12T04:58:15;99124.56;;;11.45;87.90
63554;BME280;49699;48.072;7.800;2023-05-12T05:00:41;99126.09;;;11.47;88.08
63554;BME280;49699;48.072;7.800;2023-05-12T05:03:07;99130.09;;;11.53;87.69
63554;BME280;49699;48.072;7.800;2023-05-12T05:05:32;99122.81;;;11.58;87.44
63554;BME280;49699;48.072;7.800;2023-05-12T05:07:57;99125.13;;;11.63;87.05
63554;BME280;49699;48.072;7.800;2023-05-12T05:10:23;99125.63;;;11.68;86.86
63554;BME280;49699;48.072;7.800;2023-05-12T05:12:48;99129.59;;;11.73;86.69
63554;BME280;49699;48.072;7.800;2023-05-12T05:15:15;99132.56;;;11.81;86.23
63554;BME280;49699;48.072;7.800;2023-05-12T05:17:40;99137.34;;;11.88;86.03
63554;BME280;49699;48.072;7.800;2023-05-12T05:20:07;99135.28;;;11.93;85.63
63554;BME280;49699;48.072;7.800;2023-05-12T05:22:33;99139.44;;;11.95;85.39
63554;BME280;49699;48.072;7.800;2023-05-12T05:24:58;99132.38;;;11.97;85.48
63554;BME280;49699;48.072;7.800;2023-05-12T05:27:24;99138.19;;;12.01;85.43
63554;BME280;49699;48.072;7.800;2023-05-12T05:29:49;99138.91;;;12.03;85.12
63554;BME280;49699;48.072;7.800;2023-05-12T05:32:15;99131.94;;;12.03;85.08
63554;BME280;49699;48.072;7.800;2023-05-12T05:34:41;99138.91;;;12.03;85.23
63554;BME280;49699;48.072;7.800;2023-05-12T05:37:07;99136.94;;;12.06;85.19
63554;BME280;49699;48.072;7.800;2023-05-12T05:39:32;99132.25;;;12.11;84.99
63554;BME280;49699;48.072;7.800;2023-05-12T05:41:57;99136.31;;;12.15;84.69
63554;BME280;49699;48.072;7.800;2023-05-12T05:44:23;99147.25;;;12.21;84.64
63554;BME280;49699;48.072;7.800;2023-05-12T05:46:49;99146.22;;;12.23;84.44
63554;BME280;49699;48.072;7.800;2023-05-12T05:49:15;99143.50;;;12.25;84.49
63554;BME280;49699;48.072;7.800;2023-05-12T05:51:40;99146.13;;;12.25;84.55
63554;BME280;49699;48.072;7.800;2023-05-12T05:54:06;99150.69;;;12.21;84.61
63554;BME280;49699;48.072;7.800;2023-05-12T05:56:31;99149.97;;;12.19;84.74
63554;BME280;49699;48.072;7.800;2023-05-12T05:58:57;99149.03;;;12.20;84.83
63554;BME280;49699;48.072;7.800;2023-05-12T06:01:26;99149.75;;;12.22;84.91
63554;BME280;49699;48.072;7.800;2023-05-12T06:03:51;99141.84;;;12.24;84.75
63554;BME280;49699;48.072;7.800;2023-05-12T06:06:17;99151.97;;;12.28;84.82
63554;BME280;49699;48.072;7.800;2023-05-12T06:08:42;99142.16;;;12.32;84.83
63554;BME280;49699;48.072;7.800;2023-05-12T06:11:07;99142.78;;;12.35;84.68
63554;BME280;49699;48.072;7.800;2023-05-12T06:13:33;99145.78;;;12.42;84.56
63554;BME280;49699;48.072;7.800;2023-05-12T06:15:58;99145.34;;;12.48;84.33
63554;BME280;49699;48.072;7.800;2023-05-12T06:18:24;99138.06;;;12.53;84.11
63554;BME280;49699;48.072;7.800;2023-05-12T06:20:51;99149.59;;;12.62;83.86
63554;BME280;49699;48.072;7.800;2023-05-12T06:23:16;99145.53;;;12.70;83.61
63554;BME280;49699;48.072;7.800;2023-05-12T06:25:46;99151.13;;;12.77;83.23
63554;BME280;49699;48.072;7.800;2023-05-12T06:28:12;99147.25;;;12.82;83.19
63554;BME280;49699;48.072;7.800;2023-05-12T06:30:38;99153.47;;;12.93;82.88
63554;BME280;49699;48.072;7.800;2023-05-12T06:33:03;99150.94;;;13.04;82.42
63554;BME280;49699;48.072;7.800;2023-05-12T06:35:28;99144.31;;;13.11;82.32
63554;BME280;49699;48.072;7.800;2023-05-12T06:37:54;99150.81;;;13.18;82.12
63554;BME280;49699;48.072;7.800;2023-05-12T06:40:19;99158.31;;;13.23;81.85
63554;BME280;49699;48.072;7.800;2023-05-12T06:42:45;99156.19;;;13.28;81.78
63554;BME280;49699;48.072;7.800;2023-05-12T06:45:17;99162.53;;;13.36;81.44
63554;BME280;49699;48.072;7.800;2023-05-12T06:47:42;99158.41;;;13.45;81.02
63554;BME280;49699;48.072;7.800;2023-05-12T06:50:08;99160.56;;;13.51;80.81
63554;BME280;49699;48.072;7.800;2023-05-12T06:52:34;99160.13;;;13.57;80.44
63554;BME280;49699;48.072;7.800;2023-05-12T06:54:59;99168.06;;;13.55;79.73
63554;BME280;49699;48.072;7.800;2023-05-12T06:57:24;99160.22;;;13.55;79.88
63554;BME280;49699;48.072;7.800;2023-05-12T06:59:50;99163.47;;;13.59;79.75
63554;BME280;49699;48.072;7.800;2023-05-12T07:02:15;99170.72;;;13.67;79.45
63554;BME280;49699;48.072;7.800;2023-05-12T07:04:41;99166.72;;;13.74;79.35
63554;BME280;49699;48.072;7.800;2023-05-12T07:07:06;99162.34;;;13.85;78.91
63554;BME280;49699;48.072;7.800;2023-05-12T07:09:31;99165.22;;;13.94;78.56
63554;BME280;49699;48.072;7.800;2023-05-12T07:11:56;99162.13;;;14.00;78.09
63554;BME280;49699;48.072;7.800;2023-05-12T07:14:23;99158.22;;;14.05;77.59
63554;BME280;49699;48.072;7.800;2023-05-12T07:16:48;99165.50;;;14.13;77.53
63554;BME280;49699;48.072;7.800;2023-05-12T07:19:14;99160.59;;;14.19;77.23
63554;BME280;49699;48.072;7.800;2023-05-12T07:21:39;99158.72;;;14.33;76.64
63554;BME280;49699;48.072;7.800;2023-05-12T07:24:04;99153.03;;;14.50;75.88
63554;BME280;49699;48.072;7.800;2023-05-12T07:26:32;99155.16;;;14.67;75.24
63554;BME280;49699;48.072;7.800;2023-05-12T07:28:57;99148.72;;;14.82;74.67
63554;BME280;49699;48.072;7.800;2023-05-12T07:31:24;99157.38;;;14.94;74.16
63554;BME280;49699;48.072;7.800;2023-05-12T07:33:50;99159.50;;;15.00;73.65
63554;BME280;49699;48.072;7.800;2023-05-12T07:36:15;99159.75;;;14.97;73.31
63554;BME280;49699;48.072;7.800;2023-05-12T07:38:40;99157.72;;;14.89;73.04
63554;BME280;49699;48.072;7.800;2023-05-12T07:41:05;99154.41;;;14.87;73.18
63554;BME280;49699;48.072;7.800;2023-05-12T07:43:31;99151.66;;;14.89;72.97
63554;BME280;49699;48.072;7.800;2023-05-12T07:45:56;99152.13;;;14.94;72.81
63554;BME280;49699;48.072;7.800;2023-05-12T07:48:23;99149.03;;;15.00;72.71
63554;BME280;49699;48.072;7.800;2023-05-12T07:50:48;99148.41;;;15.08;72.27
63554;BME280;49699;48.072;7.800;2023-05-12T07:53:13;99149.22;;;15.08;71.96
63554;BME280;49699;48.072;7.800;2023-05-12T07:55:39;99144.59;;;15.12;72.02
63554;BME280;49699;48.072;7.800;2023-05-12T07:58:05;99151.97;;;15.18;71.85
63554;BME280;49699;48.072;7.800;2023-05-12T08:00:30;99144.16;;;15.27;71.63
63554;BME280;49699;48.072;7.800;2023-05-12T08:02:55;99145.28;;;15.46;71.08
63554;BME280;49699;48.072;7.800;2023-05-12T08:05:21;99134.00;;;15.66;70.37
63554;BME280;49699;48.072;7.800;2023-05-12T08:07:46;99144.31;;;15.79;69.48
63554;BME280;49699;48.072;7.800;2023-05-12T08:10:11;99142.97;;;15.84;69.25
63554;BME280;49699;48.072;7.800;2023-05-12T08:12:37;99141.75;;;15.88;69.19
63554;BME280;49699;48.072;7.800;2023-05-12T08:15:02;99141.63;;;15.90;69.09
63554;BME280;49699;48.072;7.800;2023-05-12T08:17:28;99139.13;;;15.88;69.19
63554;BME280;49699;48.072;7.800;2023-05-12T08:19:53;99145.47;;;15.86;69.33
63554;BME280;49699;48.072;7.800;2023-05-12T08:22:18;99151.75;;;15.74;68.86
63554;BME280;49699;48.072;7.800;2023-05-12T08:24:44;99148.75;;;15.57;69.35
63554;BME280;49699;48.072;7.800;2023-05-12T08:27:10;99162.38;;;15.40;69.68
63554;BME280;49699;48.072;7.800;2023-05-12T08:29:35;99155.53;;;15.17;70.52
63554;BME280;49699;48.072;7.800;2023-05-12T08:32:00;99153.91;;;15.05;71.07
63554;BME280;49699;48.072;7.800;2023-05-12T08:34:26;99149.75;;;15.02;71.46
63554;BME280;49699;48.072;7.800;2023-05-12T08:36:51;99153.44;;;15.00;71.54
63554;BME280;49699;48.072;7.800;2023-05-12T08:39:17;99156.53;;;15.05;71.74
63554;BME280;49699;48.072;7.800;2023-05-12T08:44:11;99160.63;;;14.86;72.27
63554;BME280;49699;48.072;7.800;2023-05-12T08:46:37;99162.78;;;14.81;72.61
63554;BME280;49699;48.072;7.800;2023-05-12T08:49:02;99159.66;;;14.76;72.54
63554;BME280;49699;48.072;7.800;2023-05-12T08:51:28;99159.19;;;14.82;72.29
63554;BME280;49699;48.072;7.800;2023-05-12T08:53:55;99161.06;;;14.91;71.51
63554;BME280;49699;48.072;7.800;2023-05-12T08:56:21;99162.84;;;14.91;71.24
63554;BME280;49699;48.072;7.800;2023-05-12T08:58:47;99167.63;;;14.97;71.24
63554;BME280;49699;48.072;7.800;2023-05-12T09:01:12;99163.88;;;15.11;71.00
63554;BME280;49699;48.072;7.800;2023-05-12T09:03:38;99159.91;;;15.27;70.55
63554;BME280;49699;48.072;7.800;2023-05-12T09:06:04;99166.84;;;15.49;70.11
63554;BME280;49699;48.072;7.800;2023-05-12T09:08:30;99158.09;;;15.71;69.28
63554;BME280;49699;48.072;7.800;2023-05-12T09:10:57;99159.88;;;15.91;68.80
63554;BME280;49699;48.072;7.800;2023-05-12T09:13:33;99150.03;;;16.14;68.22
63554;BME280;49699;48.072;7.800;2023-05-12T09:16:01;99153.28;;;16.58;66.23
63554;BME280;49699;48.072;7.800;2023-05-12T09:18:30;99148.38;;;16.74;65.35
63554;BME280;49699;48.072;7.800;2023-05-12T09:21:06;99156.16;;;16.85;64.99
63554;BME280;49699;48.072;7.800;2023-05-12T09:23:32;99157.59;;;16.99;64.25
63554;BME280;49699;48.072;7.800;2023-05-12T09:25:57;99159.44;;;17.37;63.21
63554;BME280;49699;48.072;7.800;2023-05-12T09:28:32;99156.09;;;17.74;62.02
63554;BME280;49699;48.072;7.800;2023-05-12T09:30:58;99147.25;;;17.84;61.39
63554;BME280;49699;48.072;7.800;2023-05-12T09:33:23;99155.41;;;17.81;61.62
63554;BME280;49699;48.072;7.800;2023-05-12T09:35:49;99147.69;;;17.70;61.86
63554;BME280;49699;48.072;7.800;2023-05-12T09:38:14;99145.69;;;17.62;61.99
63554;BME280;49699;48.072;7.800;2023-05-12T09:40:40;99145.16;;;17.49;62.31
63554;BME280;49699;48.072;7.800;2023-05-12T09:43:06;99146.69;;;17.32;62.44
63554;BME280;49699;48.072;7.800;2023-05-12T09:45:32;99145.16;;;17.40;62.57
63554;BME280;49699;48.072;7.800;2023-05-12T09:48:01;99141.16;;;17.64;62.00
63554;BME280;49699;48.072;7.800;2023-05-12T09:50:31;99145.06;;;17.70;61.67
63554;BME280;49699;48.072;7.800;2023-05-12T09:52:56;99140.91;;;17.67;61.83
63554;BME280;49699;48.072;7.800;2023-05-12T09:55:22;99143.94;;;17.73;61.54
63554;BME280;49699;48.072;7.800;2023-05-12T09:57:47;99135.63;;;17.67;61.60
63554;BME280;49699;48.072;7.800;2023-05-12T10:00:13;99140.75;;;17.69;61.46
63554;BME280;49699;48.072;7.800;2023-05-12T10:02:41;99139.63;;;17.81;61.38
63554;BME280;49699;48.072;7.800;2023-05-12T10:05:07;99135.56;;;17.96;60.64
63554;BME280;49699;48.072;7.800;2023-05-12T10:07:36;99136.94;;;18.00;60.37
63554;BME280;49699;48.072;7.800;2023-05-12T10:10:01;99142.50;;;17.97;60.34
63554;BME280;49699;48.072;7.800;2023-05-12T10:12:28;99137.81;;;17.91;60.57
63554;BME280;49699;48.072;7.800;2023-05-12T10:14:54;99130.97;;;18.08;60.32
63554;BME280;49699;48.072;7.800;2023-05-12T10:17:19;99138.06;;;18.45;59.30
63554;BME280;49699;48.072;7.800;2023-05-12T10:19:45;99131.56;;;18.94;58.00
63554;BME280;49699;48.072;7.800;2023-05-12T10:22:11;99128.88;;;19.57;55.86
63554;BME280;49699;48.072;7.800;2023-05-12T10:24:39;99129.81;;;20.17;54.54
63554;BME280;49699;48.072;7.800;2023-05-12T10:27:05;99123.16;;;20.81;53.05
63554;BME280;49699;48.072;7.800;2023-05-12T10:29:31;99122.63;;;21.20;51.91
63554;BME280;49699;48.072;7.800;2023-05-12T10:31:57;99124.63;;;21.42;50.96
63554;BME280;49699;48.072;7.800;2023-05-12T10:34:27;99122.31;;;21.23;50.75
63554;BME280;49699;48.072;7.800;2023-05-12T10:36:53;99112.38;;;20.58;52.15
63554;BME280;49699;48.072;7.800;2023-05-12T10:39:19;99120.00;;;20.35;52.06
63554;BME280;49699;48.072;7.800;2023-05-12T10:41:44;99122.25;;;20.22;52.45
63554;BME280;49699;48.072;7.800;2023-05-12T10:44:10;99119.38;;;20.16;52.65
63554;BME280;49699;48.072;7.800;2023-05-12T10:46:36;99110.19;;;20.20;52.68
63554;BME280;49699;48.072;7.800;2023-05-12T10:54:04;99107.75;;;20.68;50.80
63554;BME280;49699;48.072;7.800;2023-05-12T10:56:42;99104.03;;;20.95;50.65
63554;BME280;49699;48.072;7.800;2023-05-12T10:59:18;99095.84;;;21.23;49.40
63554;BME280;49699;48.072;7.800;2023-05-12T11:04:22;99102.47;;;21.43;48.10
63554;BME280;49699;48.072;7.800;2023-05-12T11:06:56;99100.16;;;21.48;48.00
63554;BME280;49699;48.072;7.800;2023-05-12T11:09:23;99096.34;;;21.42;48.45
63554;BME280;49699;48.072;7.800;2023-05-12T11:11:48;99095.84;;;21.55;48.33
63554;BME280;49699;48.072;7.800;2023-05-12T11:14:14;99093.34;;;21.54;48.19
63554;BME280;49699;48.072;7.800;2023-05-12T11:16:40;99095.66;;;21.57;48.42
63554;BME280;49699;48.072;7.800;2023-05-12T11:19:05;99093.16;;;21.71;47.84
63554;BME280;49699;48.072;7.800;2023-05-12T11:21:31;99092.34;;;21.71;47.59
63554;BME280;49699;48.072;7.800;2023-05-12T11:23:57;99098.97;;;21.75;47.42
63554;BME280;49699;48.072;7.800;2023-05-12T11:26:23;99089.81;;;21.94;46.57
63554;BME280;49699;48.072;7.800;2023-05-12T11:28:48;99091.84;;;21.75;46.04
63554;BME280;49699;48.072;7.800;2023-05-12T11:31:17;99093.88;;;21.49;46.46
63554;BME280;49699;48.072;7.800;2023-05-12T11:33:43;99090.88;;;21.28;46.65
63554;BME280;49699;48.072;7.800;2023-05-12T11:36:09;99091.03;;;21.26;47.23
63554;BME280;49699;48.072;7.800;2023-05-12T11:38:34;99090.53;;;21.39;46.76
63554;BME280;49699;48.072;7.800;2023-05-12T11:40:59;99091.22;;;21.41;46.81
63554;BME280;49699;48.072;7.800;2023-05-12T11:43:25;99083.78;;;21.28;47.17
63554;BME280;49699;48.072;7.800;2023-05-12T11:45:52;99084.91;;;21.26;47.15
63554;BME280;49699;48.072;7.800;2023-05-12T11:48:19;99084.34;;;20.98;48.13
63554;BME280;49699;48.072;7.800;2023-05-12T11:50:45;99084.38;;;20.48;49.09
63554;BME280;49699;48.072;7.800;2023-05-12T11:53:12;99089.03;;;20.20;50.08
63554;BME280;49699;48.072;7.800;2023-05-12T11:55:54;99085.81;;;20.08;50.48
63554;BME280;49699;48.072;7.800;2023-05-12T12:00:55;99086.00;;;19.81;50.85
63554;BME280;49699;48.072;7.800;2023-05-12T12:03:21;99080.56;;;19.82;51.00
63554;BME280;49699;48.072;7.800;2023-05-12T12:06:00;99087.09;;;19.70;51.09
63554;BME280;49699;48.072;7.800;2023-05-12T12:08:26;99081.53;;;19.55;51.77
63554;BME280;49699;48.072;7.800;2023-05-12T12:10:51;99093.22;;;19.53;52.15
63554;BME280;49699;48.072;7.800;2023-05-12T12:13:20;99092.97;;;19.46;52.06
63554;BME280;49699;48.072;7.800;2023-05-12T12:15:47;99090.56;;;19.35;52.50
63554;BME280;49699;48.072;7.800;2023-05-12T12:18:12;99096.63;;;19.27;52.57
63554;BME280;49699;48.072;7.800;2023-05-12T12:20:37;99098.13;;;19.30;52.51
63554;BME280;49699;48.072;7.800;2023-05-12T12:23:02;99090.78;;;19.41;51.96
63554;BME280;49699;48.072;7.800;2023-05-12T12:25:28;99086.63;;;20.00;50.64
63554;BME280;49699;48.072;7.800;2023-05-12T12:27:53;99091.22;;;20.58;48.93
63554;BME280;49699;48.072;7.800;2023-05-12T12:30:19;99083.66;;;20.71;49.09
63554;BME280;49699;48.072;7.800;2023-05-12T12:32:44;99100.50;;;20.70;48.86
63554;BME280;49699;48.072;7.800;2023-05-12T12:35:10;99094.69;;;20.59;49.40
63554;BME280;49699;48.072;7.800;2023-05-12T12:37:37;99087.59;;;20.67;49.38
63554;BME280;49699;48.072;7.800;2023-05-12T12:40:02;99092.97;;;20.50;49.64
63554;BME280;49699;48.072;7.800;2023-05-12T12:42:35;99100.13;;;20.23;50.53
63554;BME280;49699;48.072;7.800;2023-05-12T12:45:04;99101.28;;;19.95;51.12
63554;BME280;49699;48.072;7.800;2023-05-12T12:47:29;99100.59;;;19.67;51.92
63554;BME280;49699;48.072;7.800;2023-05-12T12:49:57;99106.31;;;19.45;52.71
63554;BME280;49699;48.072;7.800;2023-05-12T12:52:22;99105.81;;;19.23;53.48
63554;BME280;49699;48.072;7.800;2023-05-12T12:54:48;99108.38;;;18.97;54.14
63554;BME280;49699;48.072;7.800;2023-05-12T12:57:13;99111.03;;;18.70;55.81
63554;BME280;49699;48.072;7.800;2023-05-12T12:59:38;99106.19;;;18.38;56.82
63554;BME280;49699;48.072;7.800;2023-05-12T13:02:04;99112.63;;;18.16;58.33
63554;BME280;49699;48.072;7.800;2023-05-12T13:04:29;99107.97;;;18.00;59.22
63554;BME280;49699;48.072;7.800;2023-05-12T13:06:55;99102.91;;;17.89;59.42
63554;BME280;49699;48.072;7.800;2023-05-12T13:09:20;99109.56;;;17.84;59.88